sensor_id;sensor_type;location;lat;lon;timestamp;temperature;humidity
25188;DHT22;13141;50.414;8.050;2022-09-24T00:01:13;13.00;99.90
25188;DHT22;13141;50.414;8.050;2022-09-24T00:03:41;13.00;99.90
25188;DHT22;13141;50.414;8.050;2022-09-24T00:06:08;13.00;99.90
25188;DHT22;13141;50.414;8.050;2022-09-24T00:08:34;13.00;99.90
25188;DHT22;13141;50.414;8.050;2022-09-24T00:11:05;12.90;99.90
25188;DHT22;13141;50.414;8.050;2022-09-24T00:13:33;12.90;99.90
25188;DHT22;13141;50.414;8.050;2022-09-24T00:16:05;12.90;99.90
25188;DHT22;13141;50.414;8.050;2022-09-24T00:18:31;12.90;99.90
25188;DHT22;13141;50.414;8.050;2022-09-24T00:20:57;12.80;99.90
25188;DHT22;13141;50.414;8.050;2022-09-24T00:23:22;12.80;99.90
25188;DHT22;13141;50.414;8.050;2022-09-24T00:25:48;12.80;99.90
25188;DHT22;13141;50.414;8.050;2022-09-24T00:28:33;12.80;99.90
25188;DHT22;13141;50.414;8.050;2022-09-24T00:31:06;12.80;99.90
25188;DHT22;13141;50.414;8.050;2022-09-24T00:33:35;12.80;99.90
25188;DHT22;13141;50.414;8.050;2022-09-24T00:36:02;12.80;99.90
25188;DHT22;13141;50.414;8.050;2022-09-24T00:38:32;12.80;99.90
25188;DHT22;13141;50.414;8.050;2022-09-24T00:40:58;12.70;99.90
25188;DHT22;13141;50.414;8.050;2022-09-24T00:43:29;12.60;99.90
25188;DHT22;13141;50.414;8.050;2022-09-24T00:48:25;12.60;99.90
25188;DHT22;13141;50.414;8.050;2022-09-24T00:50:51;12.60;99.90
25188;DHT22;13141;50.414;8.050;2022-09-24T00:53:19;12.60;99.90
25188;DHT22;13141;50.414;8.050;2022-09-24T00:55:48;12.60;99.90
25188;DHT22;13141;50.414;8.050;2022-09-24T00:58:16;12.60;99.90
25188;DHT22;13141;50.414;8.050;2022-09-24T01:00:42;12.60;99.90
25188;DHT22;13141;50.414;8.050;2022-09-24T01:03:36;12.60;99.90
25188;DHT22;13141;50.414;8.050;2022-09-24T01:06:07;12.50;99.90
25188;DHT22;13141;50.414;8.050;2022-09-24T01:08:33;12.50;99.90
25188;DHT22;13141;50.414;8.050;2022-09-24T01:14:31;12.40;99.90
25188;DHT22;13141;50.414;8.050;2022-09-24T01:17:28;12.40;99.90
25188;DHT22;13141;50.414;8.050;2022-09-24T01:23:39;12.20;99.90
25188;DHT22;13141;50.414;8.050;2022-09-24T01:31:52;11.90;99.90
25188;DHT22;13141;50.414;8.050;2022-09-24T01:34:26;11.90;99.90
25188;DHT22;13141;50.414;8.050;2022-09-24T01:36:55;12.00;99.90
25188;DHT22;13141;50.414;8.050;2022-09-24T01:39:23;12.00;99.90
25188;DHT22;13141;50.414;8.050;2022-09-24T01:41:49;12.10;99.90
25188;DHT22;13141;50.414;8.050;2022-09-24T01:44:15;12.10;99.90
25188;DHT22;13141;50.414;8.050;2022-09-24T01:46:43;12.00;99.90
25188;DHT22;13141;50.414;8.050;2022-09-24T01:49:09;12.00;99.90
25188;DHT22;13141;50.414;8.050;2022-09-24T01:51:40;12.00;99.90
25188;DHT22;13141;50.414;8.050;2022-09-24T01:54:15;12.00;99.90
25188;DHT22;13141;50.414;8.050;2022-09-24T01:59:37;12.00;99.90
25188;DHT22;13141;50.414;8.050;2022-09-24T02:04:57;11.80;99.90
25188;DHT22;13141;50.414;8.050;2022-09-24T02:07:34;11.90;99.90
25188;DHT22;13141;50.414;8.050;2022-09-24T02:10:03;11.80;99.90
25188;DHT22;13141;50.414;8.050;2022-09-24T02:12:35;11.80;99.90
25188;DHT22;13141;50.414;8.050;2022-09-24T02:15:09;11.80;99.90
25188;DHT22;13141;50.414;8.050;2022-09-24T02:17:37;11.80;99.90
25188;DHT22;13141;50.414;8.050;2022-09-24T02:20:08;11.80;99.90
25188;DHT22;13141;50.414;8.050;2022-09-24T02:22:36;11.80;99.90
25188;DHT22;13141;50.414;8.050;2022-09-24T02:25:05;11.80;99.90
25188;DHT22;13141;50.414;8.050;2022-09-24T02:27:33;11.70;99.90
25188;DHT22;13141;50.414;8.050;2022-09-24T02:29:59;11.70;99.90
25188;DHT22;13141;50.414;8.050;2022-09-24T02:32:28;11.70;99.90
25188;DHT22;13141;50.414;8.050;2022-09-24T02:34:59;11.70;99.90
25188;DHT22;13141;50.414;8.050;2022-09-24T02:37:27;11.60;99.90
25188;DHT22;13141;50.414;8.050;2022-09-24T02:39:53;11.70;99.90
25188;DHT22;13141;50.414;8.050;2022-09-24T02:42:20;11.60;99.90
25188;DHT22;13141;50.414;8.050;2022-09-24T02:44:46;11.60;99.90
25188;DHT22;13141;50.414;8.050;2022-09-24T02:47:12;11.60;99.90
25188;DHT22;13141;50.414;8.050;2022-09-24T02:49:38;11.50;99.90
25188;DHT22;13141;50.414;8.050;2022-09-24T02:52:03;11.50;99.90
25188;DHT22;13141;50.414;8.050;2022-09-24T02:54:29;11.50;99.90
25188;DHT22;13141;50.414;8.050;2022-09-24T02:56:55;11.40;99.90
25188;DHT22;13141;50.414;8.050;2022-09-24T02:59:21;11.40;99.90
25188;DHT22;13141;50.414;8.050;2022-09-24T03:01:47;11.30;99.90
25188;DHT22;13141;50.414;8.050;2022-09-24T03:04:14;11.30;99.90
25188;DHT22;13141;50.414;8.050;2022-09-24T03:06:39;11.30;99.90
25188;DHT22;13141;50.414;8.050;2022-09-24T03:09:05;11.30;99.90
25188;DHT22;13141;50.414;8.050;2022-09-24T03:11:31;11.20;99.90
25188;DHT22;13141;50.414;8.050;2022-09-24T03:13:57;11.20;99.90
25188;DHT22;13141;50.414;8.050;2022-09-24T03:16:24;11.30;99.90
25188;DHT22;13141;50.414;8.050;2022-09-24T03:18:49;11.30;99.90
25188;DHT22;13141;50.414;8.050;2022-09-24T03:21:17;11.20;99.90
25188;DHT22;13141;50.414;8.050;2022-09-24T03:23:43;11.20;99.90
25188;DHT22;13141;50.414;8.050;2022-09-24T03:26:09;11.20;99.90
25188;DHT22;13141;50.414;8.050;2022-09-24T03:28:36;11.20;99.90
25188;DHT22;13141;50.414;8.050;2022-09-24T03:31:02;11.20;99.90
25188;DHT22;13141;50.414;8.050;2022-09-24T03:36:04;11.10;99.90
25188;DHT22;13141;50.414;8.050;2022-09-24T03:38:31;11.10;99.90
25188;DHT22;13141;50.414;8.050;2022-09-24T03:40:58;11.10;99.90
25188;DHT22;13141;50.414;8.050;2022-09-24T03:43:24;11.10;99.90
25188;DHT22;13141;50.414;8.050;2022-09-24T03:45:50;11.10;99.90
25188;DHT22;13141;50.414;8.050;2022-09-24T03:48:17;11.10;99.90
25188;DHT22;13141;50.414;8.050;2022-09-24T03:50:43;11.10;99.90
25188;DHT22;13141;50.414;8.050;2022-09-24T03:53:10;11.10;99.90
25188;DHT22;13141;50.414;8.050;2022-09-24T03:55:52;11.10;99.90
25188;DHT22;13141;50.414;8.050;2022-09-24T03:58:18;11.10;99.90
25188;DHT22;13141;50.414;8.050;2022-09-24T04:00:43;11.00;99.90
25188;DHT22;13141;50.414;8.050;2022-09-24T04:03:09;11.00;99.90
25188;DHT22;13141;50.414;8.050;2022-09-24T04:05:35;11.00;99.90
25188;DHT22;13141;50.414;8.050;2022-09-24T04:08:01;11.00;99.90
25188;DHT22;13141;50.414;8.050;2022-09-24T04:10:27;11.00;99.90
25188;DHT22;13141;50.414;8.050;2022-09-24T04:12:53;11.00;99.90
25188;DHT22;13141;50.414;8.050;2022-09-24T04:15:20;11.00;99.90
25188;DHT22;13141;50.414;8.050;2022-09-24T04:17:54;11.00;99.90
25188;DHT22;13141;50.414;8.050;2022-09-24T04:20:21;11.00;99.90
25188;DHT22;13141;50.414;8.050;2022-09-24T04:22:51;11.00;99.90
25188;DHT22;13141;50.414;8.050;2022-09-24T04:25:17;11.00;99.90
25188;DHT22;13141;50.414;8.050;2022-09-24T04:27:43;11.00;99.90
25188;DHT22;13141;50.414;8.050;2022-09-24T04:30:10;11.00;99.90
25188;DHT22;13141;50.414;8.050;2022-09-24T04:32:37;10.90;99.90
25188;DHT22;13141;50.414;8.050;2022-09-24T04:35:03;10.90;99.90
25188;DHT22;13141;50.414;8.050;2022-09-24T04:37:29;10.80;99.90
25188;DHT22;13141;50.414;8.050;2022-09-24T04:39:54;10.80;99.90
25188;DHT22;13141;50.414;8.050;2022-09-24T04:42:20;10.80;99.90
25188;DHT22;13141;50.414;8.050;2022-09-24T04:44:45;10.80;99.90
25188;DHT22;13141;50.414;8.050;2022-09-24T04:47:12;10.70;99.90
25188;DHT22;13141;50.414;8.050;2022-09-24T04:49:38;10.70;99.90
25188;DHT22;13141;50.414;8.050;2022-09-24T04:52:03;10.90;99.90
25188;DHT22;13141;50.414;8.050;2022-09-24T04:54:30;10.70;99.90
25188;DHT22;13141;50.414;8.050;2022-09-24T04:56:56;10.70;99.90
25188;DHT22;13141;50.414;8.050;2022-09-24T04:59:22;10.70;99.90
25188;DHT22;13141;50.414;8.050;2022-09-24T05:01:47;10.70;99.90
25188;DHT22;13141;50.414;8.050;2022-09-24T05:04:13;10.80;99.90
25188;DHT22;13141;50.414;8.050;2022-09-24T05:06:38;10.80;99.90
25188;DHT22;13141;50.414;8.050;2022-09-24T05:09:04;10.90;99.90
25188;DHT22;13141;50.414;8.050;2022-09-24T05:11:30;10.80;99.90
25188;DHT22;13141;50.414;8.050;2022-09-24T05:13:55;10.80;99.90
25188;DHT22;13141;50.414;8.050;2022-09-24T05:16:21;10.80;99.90
25188;DHT22;13141;50.414;8.050;2022-09-24T05:18:46;10.40;99.90
25188;DHT22;13141;50.414;8.050;2022-09-24T05:21:12;10.80;99.90
25188;DHT22;13141;50.414;8.050;2022-09-24T05:23:38;10.70;99.90
25188;DHT22;13141;50.414;8.050;2022-09-24T05:26:03;10.70;99.90
25188;DHT22;13141;50.414;8.050;2022-09-24T05:28:47;10.70;99.90
25188;DHT22;13141;50.414;8.050;2022-09-24T05:31:13;10.70;99.90
25188;DHT22;13141;50.414;8.050;2022-09-24T05:33:38;10.80;99.90
25188;DHT22;13141;50.414;8.050;2022-09-24T05:36:04;10.80;99.90
25188;DHT22;13141;50.414;8.050;2022-09-24T05:38:29;10.80;99.90
25188;DHT22;13141;50.414;8.050;2022-09-24T05:40:57;10.80;99.90
25188;DHT22;13141;50.414;8.050;2022-09-24T05:43:23;10.80;99.90
25188;DHT22;13141;50.414;8.050;2022-09-24T05:45:52;10.80;99.90
25188;DHT22;13141;50.414;8.050;2022-09-24T05:48:19;10.80;99.90
25188;DHT22;13141;50.414;8.050;2022-09-24T05:50:45;10.80;99.90
25188;DHT22;13141;50.414;8.050;2022-09-24T05:53:11;10.90;99.90
25188;DHT22;13141;50.414;8.050;2022-09-24T05:55:37;10.90;99.90
25188;DHT22;13141;50.414;8.050;2022-09-24T05:58:07;10.90;99.90
25188;DHT22;13141;50.414;8.050;2022-09-24T06:00:34;10.90;99.90
25188;DHT22;13141;50.414;8.050;2022-09-24T06:03:10;10.80;99.90
25188;DHT22;13141;50.414;8.050;2022-09-24T06:05:36;10.70;99.90
25188;DHT22;13141;50.414;8.050;2022-09-24T06:08:03;10.70;99.90
25188;DHT22;13141;50.414;8.050;2022-09-24T06:10:28;10.70;99.90
25188;DHT22;13141;50.414;8.050;2022-09-24T06:12:54;10.80;99.90
25188;DHT22;13141;50.414;8.050;2022-09-24T06:15:21;10.90;99.90
25188;DHT22;13141;50.414;8.050;2022-09-24T06:17:47;11.00;99.90
25188;DHT22;13141;50.414;8.050;2022-09-24T06:20:12;11.00;99.90
25188;DHT22;13141;50.414;8.050;2022-09-24T06:22:38;10.90;99.90
25188;DHT22;13141;50.414;8.050;2022-09-24T06:25:05;10.90;99.90
25188;DHT22;13141;50.414;8.050;2022-09-24T06:27:31;11.00;99.90
25188;DHT22;13141;50.414;8.050;2022-09-24T06:29:57;11.00;99.90
25188;DHT22;13141;50.414;8.050;2022-09-24T06:32:23;11.20;99.90
25188;DHT22;13141;50.414;8.050;2022-09-24T06:34:49;11.10;99.90
25188;DHT22;13141;50.414;8.050;2022-09-24T06:37:15;11.20;99.90
25188;DHT22;13141;50.414;8.050;2022-09-24T06:39:40;11.30;99.90
25188;DHT22;13141;50.414;8.050;2022-09-24T06:42:07;11.40;99.90
25188;DHT22;13141;50.414;8.050;2022-09-24T06:44:35;11.40;99.90
25188;DHT22;13141;50.414;8.050;2022-09-24T06:47:01;11.50;99.90
25188;DHT22;13141;50.414;8.050;2022-09-24T06:49:27;11.50;99.90
25188;DHT22;13141;50.414;8.050;2022-09-24T06:51:53;11.50;99.90
25188;DHT22;13141;50.414;8.050;2022-09-24T06:54:19;11.50;99.90
25188;DHT22;13141;50.414;8.050;2022-09-24T06:56:45;11.40;99.90
25188;DHT22;13141;50.414;8.050;2022-09-24T06:59:11;11.40;99.90
25188;DHT22;13141;50.414;8.050;2022-09-24T07:01:36;11.30;99.90
25188;DHT22;13141;50.414;8.050;2022-09-24T07:04:02;11.40;99.90
25188;DHT22;13141;50.414;8.050;2022-09-24T07:06:28;11.40;99.90
25188;DHT22;13141;50.414;8.050;2022-09-24T07:09:13;11.50;99.90
25188;DHT22;13141;50.414;8.050;2022-09-24T07:11:39;11.70;99.90
25188;DHT22;13141;50.414;8.050;2022-09-24T07:14:04;11.70;99.90
25188;DHT22;13141;50.414;8.050;2022-09-24T07:16:30;11.80;99.90
25188;DHT22;13141;50.414;8.050;2022-09-24T07:18:55;11.80;99.90
25188;DHT22;13141;50.414;8.050;2022-09-24T07:21:21;11.80;99.90
25188;DHT22;13141;50.414;8.050;2022-09-24T07:23:47;11.90;99.90
25188;DHT22;13141;50.414;8.050;2022-09-24T07:26:12;11.90;99.90
25188;DHT22;13141;50.414;8.050;2022-09-24T07:28:38;11.90;99.90
25188;DHT22;13141;50.414;8.050;2022-09-24T07:31:03;12.00;99.90
25188;DHT22;13141;50.414;8.050;2022-09-24T07:33:32;12.10;99.90
25188;DHT22;13141;50.414;8.050;2022-09-24T07:35:58;12.30;99.90
25188;DHT22;13141;50.414;8.050;2022-09-24T07:38:23;12.30;99.90
25188;DHT22;13141;50.414;8.050;2022-09-24T07:40:49;12.20;99.90
25188;DHT22;13141;50.414;8.050;2022-09-24T07:43:14;12.30;99.90
25188;DHT22;13141;50.414;8.050;2022-09-24T07:45:40;12.50;99.90
25188;DHT22;13141;50.414;8.050;2022-09-24T07:48:06;12.70;99.90
25188;DHT22;13141;50.414;8.050;2022-09-24T07:50:37;12.70;99.90
25188;DHT22;13141;50.414;8.050;2022-09-24T07:53:03;12.70;99.90
25188;DHT22;13141;50.414;8.050;2022-09-24T07:55:30;12.80;99.90
25188;DHT22;13141;50.414;8.050;2022-09-24T07:57:56;12.80;99.90
25188;DHT22;13141;50.414;8.050;2022-09-24T08:00:23;12.80;99.90
25188;DHT22;13141;50.414;8.050;2022-09-24T08:02:49;12.80;99.90
25188;DHT22;13141;50.414;8.050;2022-09-24T08:05:16;12.80;99.90
25188;DHT22;13141;50.414;8.050;2022-09-24T08:07:49;12.90;99.90
25188;DHT22;13141;50.414;8.050;2022-09-24T08:10:14;13.00;99.90
25188;DHT22;13141;50.414;8.050;2022-09-24T08:12:40;13.00;99.90
25188;DHT22;13141;50.414;8.050;2022-09-24T08:15:06;12.90;99.90
25188;DHT22;13141;50.414;8.050;2022-09-24T08:17:32;13.00;99.90
25188;DHT22;13141;50.414;8.050;2022-09-24T08:19:57;13.20;99.90
25188;DHT22;13141;50.414;8.050;2022-09-24T08:22:23;13.40;99.90
25188;DHT22;13141;50.414;8.050;2022-09-24T08:24:49;13.50;99.90
25188;DHT22;13141;50.414;8.050;2022-09-24T08:27:15;13.50;99.90
25188;DHT22;13141;50.414;8.050;2022-09-24T08:29:42;13.20;99.90
25188;DHT22;13141;50.414;8.050;2022-09-24T08:32:07;13.30;99.90
25188;DHT22;13141;50.414;8.050;2022-09-24T08:34:33;13.50;99.90
25188;DHT22;13141;50.414;8.050;2022-09-24T08:37:03;13.80;99.90
25188;DHT22;13141;50.414;8.050;2022-09-24T08:39:30;14.10;99.90
25188;DHT22;13141;50.414;8.050;2022-09-24T08:42:02;14.30;99.90
25188;DHT22;13141;50.414;8.050;2022-09-24T08:44:41;14.40;99.90
25188;DHT22;13141;50.414;8.050;2022-09-24T08:50:04;14.80;99.90
25188;DHT22;13141;50.414;8.050;2022-09-24T09:01:01;15.40;99.90
25188;DHT22;13141;50.414;8.050;2022-09-24T09:03:45;15.50;99.90
25188;DHT22;13141;50.414;8.050;2022-09-24T09:09:14;16.50;99.90
25188;DHT22;13141;50.414;8.050;2022-09-24T09:11:49;17.10;99.90
25188;DHT22;13141;50.414;8.050;2022-09-24T09:14:29;17.40;99.90
25188;DHT22;13141;50.414;8.050;2022-09-24T09:17:01;17.40;99.90
25188;DHT22;13141;50.414;8.050;2022-09-24T09:19:31;17.90;99.90
25188;DHT22;13141;50.414;8.050;2022-09-24T09:22:13;18.20;99.90
25188;DHT22;13141;50.414;8.050;2022-09-24T09:24:47;18.10;99.90
25188;DHT22;13141;50.414;8.050;2022-09-24T09:27:15;18.20;99.90
25188;DHT22;13141;50.414;8.050;2022-09-24T09:29:57;18.20;99.90
25188;DHT22;13141;50.414;8.050;2022-09-24T09:35:42;18.90;99.90
25188;DHT22;13141;50.414;8.050;2022-09-24T09:38:21;19.30;99.90
25188;DHT22;13141;50.414;8.050;2022-09-24T09:43:32;19.80;99.90
25188;DHT22;13141;50.414;8.050;2022-09-24T09:46:21;19.50;99.90
25188;DHT22;13141;50.414;8.050;2022-09-24T09:48:51;19.30;99.90
25188;DHT22;13141;50.414;8.050;2022-09-24T09:51:20;19.40;99.90
25188;DHT22;13141;50.414;8.050;2022-09-24T09:53:59;19.50;99.90
25188;DHT22;13141;50.414;8.050;2022-09-24T09:56:32;19.60;99.90
25188;DHT22;13141;50.414;8.050;2022-09-24T10:01:39;19.40;99.90
25188;DHT22;13141;50.414;8.050;2022-09-24T10:06:46;20.10;99.90
25188;DHT22;13141;50.414;8.050;2022-09-24T10:09:19;20.70;99.90
25188;DHT22;13141;50.414;8.050;2022-09-24T10:11:45;21.20;99.90
25188;DHT22;13141;50.414;8.050;2022-09-24T10:14:13;21.60;99.70
25188;DHT22;13141;50.414;8.050;2022-09-24T10:16:44;21.80;99.90
25188;DHT22;13141;50.414;8.050;2022-09-24T10:19:33;21.80;99.60
25188;DHT22;13141;50.414;8.050;2022-09-24T10:22:28;21.60;98.30
25188;DHT22;13141;50.414;8.050;2022-09-24T10:24:55;21.90;99.00
25188;DHT22;13141;50.414;8.050;2022-09-24T10:27:33;22.00;97.70
25188;DHT22;13141;50.414;8.050;2022-09-24T10:30:02;22.30;98.70
25188;DHT22;13141;50.414;8.050;2022-09-24T10:32:55;22.90;98.80
25188;DHT22;13141;50.414;8.050;2022-09-24T10:35:29;23.40;96.70
25188;DHT22;13141;50.414;8.050;2022-09-24T10:37:58;23.70;97.00
25188;DHT22;13141;50.414;8.050;2022-09-24T10:40:38;23.60;97.30
25188;DHT22;13141;50.414;8.050;2022-09-24T10:43:05;23.40;95.90
25188;DHT22;13141;50.414;8.050;2022-09-24T10:45:49;23.40;95.50
25188;DHT22;13141;50.414;8.050;2022-09-24T10:48:26;23.20;94.60
25188;DHT22;13141;50.414;8.050;2022-09-24T10:51:15;23.00;95.20
25188;DHT22;13141;50.414;8.050;2022-09-24T10:56:40;23.20;95.90
25188;DHT22;13141;50.414;8.050;2022-09-24T10:59:40;23.80;95.50
25188;DHT22;13141;50.414;8.050;2022-09-24T11:04:46;25.00;94.60
25188;DHT22;13141;50.414;8.050;2022-09-24T11:10:26;25.70;93.90
25188;DHT22;13141;50.414;8.050;2022-09-24T11:24:13;26.10;90.50
25188;DHT22;13141;50.414;8.050;2022-09-24T11:27:11;25.90;90.50
25188;DHT22;13141;50.414;8.050;2022-09-24T11:29:47;25.90;90.50
25188;DHT22;13141;50.414;8.050;2022-09-24T11:37:57;25.90;86.70
25188;DHT22;13141;50.414;8.050;2022-09-24T11:40:42;25.90;88.80
25188;DHT22;13141;50.414;8.050;2022-09-24T11:51:20;25.70;87.10
25188;DHT22;13141;50.414;8.050;2022-09-24T11:56:38;25.30;84.40
25188;DHT22;13141;50.414;8.050;2022-09-24T12:02:09;24.70;80.80
25188;DHT22;13141;50.414;8.050;2022-09-24T12:04:54;24.50;75.60
25188;DHT22;13141;50.414;8.050;2022-09-24T12:10:21;24.40;81.90
25188;DHT22;13141;50.414;8.050;2022-09-24T12:15:42;24.90;84.60
25188;DHT22;13141;50.414;8.050;2022-09-24T12:18:27;25.20;84.10
25188;DHT22;13141;50.414;8.050;2022-09-24T12:20:58;25.20;84.70
25188;DHT22;13141;50.414;8.050;2022-09-24T12:23:31;25.20;83.60
25188;DHT22;13141;50.414;8.050;2022-09-24T12:26:01;25.00;82.10
25188;DHT22;13141;50.414;8.050;2022-09-24T12:28:38;24.90;82.70
25188;DHT22;13141;50.414;8.050;2022-09-24T12:31:30;24.70;84.00
25188;DHT22;13141;50.414;8.050;2022-09-24T12:34:25;24.50;76.70
25188;DHT22;13141;50.414;8.050;2022-09-24T12:37:11;24.20;76.30
25188;DHT22;13141;50.414;8.050;2022-09-24T12:40:01;24.00;76.70
25188;DHT22;13141;50.414;8.050;2022-09-24T12:42:34;23.90;76.80
25188;DHT22;13141;50.414;8.050;2022-09-24T12:45:02;24.20;83.30
25188;DHT22;13141;50.414;8.050;2022-09-24T12:47:31;24.40;84.30
25188;DHT22;13141;50.414;8.050;2022-09-24T12:50:04;24.70;83.70
25188;DHT22;13141;50.414;8.050;2022-09-24T12:52:34;25.10;84.90
25188;DHT22;13141;50.414;8.050;2022-09-24T12:55:02;25.10;80.10
25188;DHT22;13141;50.414;8.050;2022-09-24T12:57:40;25.10;84.50
25188;DHT22;13141;50.414;8.050;2022-09-24T13:00:37;25.10;80.80
25188;DHT22;13141;50.414;8.050;2022-09-24T13:03:05;25.20;84.90
25188;DHT22;13141;50.414;8.050;2022-09-24T13:10:52;25.10;84.00
25188;DHT22;13141;50.414;8.050;2022-09-24T13:13:30;25.00;80.00
25188;DHT22;13141;50.414;8.050;2022-09-24T13:16:18;24.70;77.20
25188;DHT22;13141;50.414;8.050;2022-09-24T13:18:55;24.30;79.30
25188;DHT22;13141;50.414;8.050;2022-09-24T13:21:26;24.20;81.80
25188;DHT22;13141;50.414;8.050;2022-09-24T13:23:52;24.00;82.80
25188;DHT22;13141;50.414;8.050;2022-09-24T13:26:28;23.90;80.90
25188;DHT22;13141;50.414;8.050;2022-09-24T13:28:56;23.70;81.70
25188;DHT22;13141;50.414;8.050;2022-09-24T13:31:34;23.40;81.10
25188;DHT22;13141;50.414;8.050;2022-09-24T13:48:05;23.20;88.80
25188;DHT22;13141;50.414;8.050;2022-09-24T13:50:44;23.10;84.90
25188;DHT22;13141;50.414;8.050;2022-09-24T13:56:01;23.10;90.20
25188;DHT22;13141;50.414;8.050;2022-09-24T13:58:38;23.10;91.90
25188;DHT22;13141;50.414;8.050;2022-09-24T14:01:26;23.10;91.70
25188;DHT22;13141;50.414;8.050;2022-09-24T14:04:03;23.00;91.00
25188;DHT22;13141;50.414;8.050;2022-09-24T14:06:39;23.00;91.00
25188;DHT22;13141;50.414;8.050;2022-09-24T14:11:52;22.90;90.70
25188;DHT22;13141;50.414;8.050;2022-09-24T14:14:20;22.90;91.20
25188;DHT22;13141;50.414;8.050;2022-09-24T14:16:46;22.80;91.90
25188;DHT22;13141;50.414;8.050;2022-09-24T14:19:13;22.70;92.40
25188;DHT22;13141;50.414;8.050;2022-09-24T14:21:58;22.70;92.60
25188;DHT22;13141;50.414;8.050;2022-09-24T14:24:27;22.70;91.70
25188;DHT22;13141;50.414;8.050;2022-09-24T14:27:06;22.70;91.80
25188;DHT22;13141;50.414;8.050;2022-09-24T14:32:05;22.70;92.60
25188;DHT22;13141;50.414;8.050;2022-09-24T14:34:37;22.70;92.80
25188;DHT22;13141;50.414;8.050;2022-09-24T14:37:24;22.70;92.60
25188;DHT22;13141;50.414;8.050;2022-09-24T14:40:00;22.70;92.20
25188;DHT22;13141;50.414;8.050;2022-09-24T14:42:37;22.90;92.20
25188;DHT22;13141;50.414;8.050;2022-09-24T14:45:06;22.50;92.30
25188;DHT22;13141;50.414;8.050;2022-09-24T14:47:34;22.60;93.10
25188;DHT22;13141;50.414;8.050;2022-09-24T14:50:00;22.60;92.90
25188;DHT22;13141;50.414;8.050;2022-09-24T14:52:32;22.50;92.90
25188;DHT22;13141;50.414;8.050;2022-09-24T14:55:15;22.50;92.90
25188;DHT22;13141;50.414;8.050;2022-09-24T14:57:42;22.30;93.70
25188;DHT22;13141;50.414;8.050;2022-09-24T15:03:02;22.30;94.90
25188;DHT22;13141;50.414;8.050;2022-09-24T15:05:29;22.30;93.10
25188;DHT22;13141;50.414;8.050;2022-09-24T15:13:23;22.20;92.80
25188;DHT22;13141;50.414;8.050;2022-09-24T15:16:03;21.80;93.70
25188;DHT22;13141;50.414;8.050;2022-09-24T15:18:30;21.30;93.20
25188;DHT22;13141;50.414;8.050;2022-09-24T15:20:55;21.00;92.20
25188;DHT22;13141;50.414;8.050;2022-09-24T15:23:23;20.80;92.20
25188;DHT22;13141;50.414;8.050;2022-09-24T15:25:49;20.70;92.50
25188;DHT22;13141;50.414;8.050;2022-09-24T15:28:14;20.60;92.80
25188;DHT22;13141;50.414;8.050;2022-09-24T15:30:40;20.50;92.60
25188;DHT22;13141;50.414;8.050;2022-09-24T15:33:12;20.40;92.90
25188;DHT22;13141;50.414;8.050;2022-09-24T15:35:39;20.40;93.10
25188;DHT22;13141;50.414;8.050;2022-09-24T15:38:09;20.30;93.10
25188;DHT22;13141;50.414;8.050;2022-09-24T15:40:39;20.30;93.30
25188;DHT22;13141;50.414;8.050;2022-09-24T15:43:09;20.20;93.60
25188;DHT22;13141;50.414;8.050;2022-09-24T15:45:36;20.20;93.60
25188;DHT22;13141;50.414;8.050;2022-09-24T15:48:02;20.10;93.10
25188;DHT22;13141;50.414;8.050;2022-09-24T15:50:28;20.00;93.10
25188;DHT22;13141;50.414;8.050;2022-09-24T15:52:57;19.90;93.30
25188;DHT22;13141;50.414;8.050;2022-09-24T15:55:24;19.80;93.70
25188;DHT22;13141;50.414;8.050;2022-09-24T15:57:50;19.70;94.10
25188;DHT22;13141;50.414;8.050;2022-09-24T16:00:18;19.70;94.10
25188;DHT22;13141;50.414;8.050;2022-09-24T16:02:48;19.60;94.50
25188;DHT22;13141;50.414;8.050;2022-09-24T16:05:15;19.50;94.70
25188;DHT22;13141;50.414;8.050;2022-09-24T16:07:41;19.50;94.70
25188;DHT22;13141;50.414;8.050;2022-09-24T16:10:08;19.40;94.90
25188;DHT22;13141;50.414;8.050;2022-09-24T16:12:34;19.20;95.30
25188;DHT22;13141;50.414;8.050;2022-09-24T16:15:00;19.10;95.80
25188;DHT22;13141;50.414;8.050;2022-09-24T16:17:26;19.00;96.10
25188;DHT22;13141;50.414;8.050;2022-09-24T16:19:52;19.00;96.60
25188;DHT22;13141;50.414;8.050;2022-09-24T16:22:17;19.00;96.80
25188;DHT22;13141;50.414;8.050;2022-09-24T16:24:43;18.90;97.00
25188;DHT22;13141;50.414;8.050;2022-09-24T16:27:09;18.90;97.40
25188;DHT22;13141;50.414;8.050;2022-09-24T16:29:34;18.90;97.70
25188;DHT22;13141;50.414;8.050;2022-09-24T16:32:00;18.90;97.70
25188;DHT22;13141;50.414;8.050;2022-09-24T16:34:27;19.00;97.90
25188;DHT22;13141;50.414;8.050;2022-09-24T16:36:52;19.00;98.10
25188;DHT22;13141;50.414;8.050;2022-09-24T16:39:18;19.00;98.50
25188;DHT22;13141;50.414;8.050;2022-09-24T16:41:48;18.90;98.90
25188;DHT22;13141;50.414;8.050;2022-09-24T16:44:13;19.00;99.20
25188;DHT22;13141;50.414;8.050;2022-09-24T16:46:40;19.00;99.30
25188;DHT22;13141;50.414;8.050;2022-09-24T16:49:05;19.00;99.20
25188;DHT22;13141;50.414;8.050;2022-09-24T16:51:31;19.00;99.90
25188;DHT22;13141;50.414;8.050;2022-09-24T16:53:56;18.90;99.90
25188;DHT22;13141;50.414;8.050;2022-09-24T16:56:22;18.80;99.90
25188;DHT22;13141;50.414;8.050;2022-09-24T16:58:48;18.60;99.90
25188;DHT22;13141;50.414;8.050;2022-09-24T17:01:16;18.70;99.90
25188;DHT22;13141;50.414;8.050;2022-09-24T17:03:42;18.30;99.90
25188;DHT22;13141;50.414;8.050;2022-09-24T17:06:20;18.20;99.90
25188;DHT22;13141;50.414;8.050;2022-09-24T17:08:46;18.20;99.90
25188;DHT22;13141;50.414;8.050;2022-09-24T17:11:31;18.10;99.90
25188;DHT22;13141;50.414;8.050;2022-09-24T17:13:58;18.00;99.90
25188;DHT22;13141;50.414;8.050;2022-09-24T17:16:23;17.90;99.90
25188;DHT22;13141;50.414;8.050;2022-09-24T17:18:49;17.90;99.90
25188;DHT22;13141;50.414;8.050;2022-09-24T17:21:15;17.80;99.90
25188;DHT22;13141;50.414;8.050;2022-09-24T17:23:42;17.80;99.90
25188;DHT22;13141;50.414;8.050;2022-09-24T17:26:10;17.80;99.90
25188;DHT22;13141;50.414;8.050;2022-09-24T17:28:37;17.80;99.90
25188;DHT22;13141;50.414;8.050;2022-09-24T17:31:04;17.70;99.90
25188;DHT22;13141;50.414;8.050;2022-09-24T17:33:30;17.70;99.90
25188;DHT22;13141;50.414;8.050;2022-09-24T17:35:58;17.70;99.90
25188;DHT22;13141;50.414;8.050;2022-09-24T17:38:24;17.60;99.90
25188;DHT22;13141;50.414;8.050;2022-09-24T17:40:54;17.50;99.90
25188;DHT22;13141;50.414;8.050;2022-09-24T17:43:20;17.50;99.90
25188;DHT22;13141;50.414;8.050;2022-09-24T17:46:19;17.70;99.90
25188;DHT22;13141;50.414;8.050;2022-09-24T17:48:51;17.60;99.90
25188;DHT22;13141;50.414;8.050;2022-09-24T17:51:20;17.60;99.90
25188;DHT22;13141;50.414;8.050;2022-09-24T17:53:48;17.60;99.90
25188;DHT22;13141;50.414;8.050;2022-09-24T17:56:15;17.60;99.90